createdAt,value
2023-02-27T00:01:46.599Z,1.70
2023-02-27T00:04:14.963Z,1.50
2023-02-27T00:06:42.985Z,1.30
2023-02-27T00:09:10.950Z,1.50
2023-02-27T00:11:39.223Z,1.60
2023-02-27T00:14:07.425Z,1.80
2023-02-27T00:16:35.496Z,1.50
2023-02-27T00:19:05.074Z,2.30
2023-02-27T00:21:35.288Z,1.90
2023-02-27T00:24:05.660Z,1.70
2023-02-27T00:26:33.791Z,1.70
2023-02-27T00:29:01.729Z,1.80
2023-02-27T00:31:30.785Z,1.50
2023-02-27T00:33:59.127Z,1.90
2023-02-27T00:36:27.203Z,1.80
2023-02-27T00:38:55.370Z,1.90
2023-02-27T00:41:23.394Z,2.00
2023-02-27T00:43:53.014Z,2.00
2023-02-27T00:46:20.981Z,2.30
2023-02-27T00:48:49.330Z,2.20
2023-02-27T00:51:20.203Z,2.90
2023-02-27T00:53:48.295Z,3.10
2023-02-27T00:56:16.375Z,3.10
2023-02-27T00:58:44.439Z,4.20
2023-02-27T01:01:12.562Z,4.90
2023-02-27T01:03:40.681Z,4.00
2023-02-27T01:06:08.855Z,3.40
2023-02-27T01:08:36.935Z,3.00
2023-02-27T01:11:06.433Z,2.70
2023-02-27T01:13:34.502Z,2.80
2023-02-27T01:16:02.661Z,2.70
2023-02-27T01:18:30.931Z,2.10
2023-02-27T01:20:58.921Z,1.60
2023-02-27T01:23:27.092Z,1.70
2023-02-27T01:25:55.166Z,1.90
2023-02-27T01:28:23.146Z,1.60
2023-02-27T01:30:51.704Z,1.70
2023-02-27T01:33:19.787Z,1.80
2023-02-27T01:35:47.882Z,1.80
2023-02-27T01:38:15.927Z,1.90
2023-02-27T01:40:44.822Z,1.70
2023-02-27T01:43:19.270Z,2.10
2023-02-27T01:45:49.141Z,2.00
2023-02-27T01:48:26.227Z,2.10
2023-02-27T01:51:07.628Z,2.30
2023-02-27T01:53:38.468Z,2.00
2023-02-27T01:56:19.912Z,2.30
2023-02-27T01:58:50.049Z,2.30
2023-02-27T02:01:20.587Z,2.90
2023-02-27T02:04:00.700Z,3.00
2023-02-27T02:06:38.532Z,2.60
2023-02-27T02:09:08.959Z,2.50
2023-02-27T02:11:38.118Z,2.90
2023-02-27T02:14:10.978Z,2.60
2023-02-27T02:16:43.444Z,2.80
2023-02-27T02:19:14.275Z,3.30
2023-02-27T02:21:45.383Z,3.00
2023-02-27T02:24:20.522Z,2.70
2023-02-27T02:27:19.368Z,2.80
2023-02-27T02:30:02.749Z,2.70
2023-02-27T02:33:03.006Z,3.00
2023-02-27T02:35:47.726Z,2.80
2023-02-27T02:38:40.166Z,2.90
2023-02-27T02:41:34.595Z,2.70
2023-02-27T02:44:32.629Z,3.10
2023-02-27T02:47:22.042Z,2.80
2023-02-27T02:49:55.667Z,3.00
2023-02-27T02:52:36.482Z,2.80
2023-02-27T02:55:18.850Z,4.50
2023-02-27T02:57:58.110Z,7.10
2023-02-27T03:00:33.391Z,7.30
2023-02-27T03:03:23.126Z,7.80
2023-02-27T03:05:58.160Z,5.20
2023-02-27T03:08:34.431Z,5.40
2023-02-27T03:11:04.148Z,4.00
2023-02-27T03:13:39.518Z,5.50
2023-02-27T03:16:27.830Z,4.90
2023-02-27T03:19:33.875Z,5.10
2023-02-27T03:22:05.492Z,6.50
2023-02-27T03:24:41.996Z,6.60
2023-02-27T03:27:11.919Z,6.30
2023-02-27T03:30:07.534Z,8.10
2023-02-27T03:32:54.439Z,7.50
2023-02-27T03:35:28.524Z,8.00
2023-02-27T03:38:08.809Z,8.40
2023-02-27T03:40:44.556Z,8.80
2023-02-27T03:43:16.561Z,8.90
2023-02-27T03:45:51.038Z,8.50
2023-02-27T03:48:19.248Z,9.10
2023-02-27T03:50:47.483Z,8.90
2023-02-27T03:53:44.535Z,8.70
2023-02-27T03:56:16.400Z,7.90
2023-02-27T03:58:44.768Z,8.20
2023-02-27T04:01:13.146Z,8.20
2023-02-27T04:03:52.565Z,11.70
2023-02-27T04:06:54.043Z,15.00
2023-02-27T04:09:30.143Z,14.80
2023-02-27T04:12:26.466Z,14.80
2023-02-27T04:15:12.627Z,15.30
2023-02-27T04:18:18.991Z,17.70
2023-02-27T04:21:19.317Z,16.90
2023-02-27T04:23:59.519Z,19.60
2023-02-27T04:26:58.881Z,19.90
2023-02-27T04:29:39.922Z,19.30
2023-02-27T04:32:31.294Z,18.90
2023-02-27T04:35:06.609Z,18.00
2023-02-27T04:37:57.844Z,18.00
2023-02-27T04:40:37.061Z,16.40
2023-02-27T04:43:09.803Z,14.50
2023-02-27T04:45:41.825Z,13.10
2023-02-27T04:48:24.517Z,10.40
2023-02-27T04:50:58.608Z,12.80
2023-02-27T04:53:39.907Z,12.70
2023-02-27T04:56:14.278Z,11.40
2023-02-27T04:58:53.080Z,10.00
2023-02-27T05:01:31.060Z,9.10
2023-02-27T05:04:00.656Z,9.40
2023-02-27T05:06:35.183Z,9.80
2023-02-27T05:09:31.433Z,9.40
2023-02-27T05:12:05.007Z,13.90
2023-02-27T05:14:39.322Z,17.40
2023-02-27T05:17:36.880Z,13.10
2023-02-27T05:20:09.364Z,12.40
2023-02-27T05:22:47.975Z,12.10
2023-02-27T05:25:30.819Z,16.10
2023-02-27T05:28:02.759Z,14.30
2023-02-27T05:30:48.231Z,14.70
2023-02-27T05:33:31.055Z,15.20
2023-02-27T05:36:14.298Z,14.90
2023-02-27T05:38:51.660Z,18.30
2023-02-27T05:41:27.844Z,27.40
2023-02-27T05:44:08.438Z,26.10
2023-02-27T05:46:42.943Z,16.50
2023-02-27T05:49:27.880Z,14.10
2023-02-27T05:52:02.088Z,20.30
2023-02-27T05:54:43.062Z,22.10
2023-02-27T05:57:17.479Z,36.00
2023-02-27T06:00:03.673Z,34.20
2023-02-27T06:02:41.342Z,79.20
2023-02-27T06:05:10.256Z,68.70
2023-02-27T06:07:38.434Z,58.10
2023-02-27T06:10:07.237Z,79.90
2023-02-27T06:12:35.297Z,47.90
2023-02-27T06:15:03.563Z,54.10
2023-02-27T06:17:31.536Z,43.20
2023-02-27T06:19:59.713Z,33.90
2023-02-27T06:22:27.778Z,45.40
2023-02-27T06:24:56.260Z,37.60
2023-02-27T06:27:24.336Z,36.10
2023-02-27T06:29:53.674Z,37.50
2023-02-27T06:32:25.382Z,38.90
2023-02-27T06:34:53.562Z,37.20
2023-02-27T06:37:22.137Z,36.50
2023-02-27T06:39:50.409Z,37.70
2023-02-27T06:42:18.479Z,29.90
2023-02-27T06:44:46.548Z,27.80
2023-02-27T06:47:14.725Z,28.00
2023-02-27T06:49:42.793Z,27.10
2023-02-27T06:52:10.799Z,25.90
2023-02-27T06:54:38.932Z,22.80
2023-02-27T06:57:07.207Z,20.40
2023-02-27T06:59:35.336Z,19.00
2023-02-27T07:02:03.557Z,18.80
2023-02-27T07:04:31.593Z,19.50
2023-02-27T07:07:35.710Z,19.90
2023-02-27T07:09:49.080Z,20.50
2023-02-27T07:12:17.175Z,21.00
2023-02-27T07:14:45.181Z,21.40
2023-02-27T07:17:13.179Z,21.90
2023-02-27T07:19:41.253Z,22.00
2023-02-27T07:22:11.995Z,22.80
2023-02-27T07:24:40.059Z,25.10
2023-02-27T07:27:08.131Z,25.30
2023-02-27T07:29:36.286Z,22.50
2023-02-27T07:32:04.601Z,20.40
2023-02-27T07:34:32.746Z,18.60
2023-02-27T07:37:00.812Z,16.90
2023-02-27T07:39:28.982Z,16.80
2023-02-27T07:41:57.052Z,16.00
2023-02-27T07:44:25.136Z,12.90
2023-02-27T07:46:53.341Z,6.90
2023-02-27T07:49:21.575Z,6.70
2023-02-27T07:51:49.648Z,7.10
2023-02-27T07:54:17.819Z,5.00
2023-02-27T07:56:46.306Z,4.70
2023-02-27T07:59:14.317Z,3.40
2023-02-27T08:01:42.437Z,4.90
2023-02-27T08:04:10.652Z,7.70
2023-02-27T08:06:38.891Z,6.20
2023-02-27T08:09:07.262Z,10.70
2023-02-27T08:11:35.370Z,11.10
2023-02-27T08:14:03.549Z,9.80
2023-02-27T08:16:32.527Z,8.20
2023-02-27T08:19:01.596Z,8.10
2023-02-27T08:21:30.325Z,5.50
2023-02-27T08:23:58.958Z,5.90
2023-02-27T08:26:27.382Z,6.50
2023-02-27T08:28:55.620Z,5.00
2023-02-27T08:31:24.349Z,5.00
2023-02-27T08:34:01.222Z,4.60
2023-02-27T08:36:36.302Z,4.30
2023-02-27T08:39:05.113Z,4.20
2023-02-27T08:41:34.236Z,4.30
2023-02-27T08:44:03.112Z,4.60
2023-02-27T08:46:31.229Z,4.60
2023-02-27T08:48:59.220Z,4.50
2023-02-27T08:51:27.779Z,3.60
2023-02-27T08:53:59.158Z,3.30
2023-02-27T08:56:28.609Z,3.00
2023-02-27T08:58:57.143Z,3.50
2023-02-27T09:01:28.676Z,3.70
2023-02-27T09:03:57.813Z,3.00
2023-02-27T09:06:26.523Z,3.10
2023-02-27T09:08:55.429Z,3.00
2023-02-27T09:11:24.467Z,3.40
2023-02-27T09:13:53.241Z,2.90
2023-02-27T09:16:22.486Z,3.50
2023-02-27T09:18:50.819Z,2.10
2023-02-27T09:21:18.882Z,1.60
2023-02-27T09:23:47.057Z,1.60
2023-02-27T09:26:16.277Z,1.30
2023-02-27T09:28:44.838Z,1.40
2023-02-27T09:31:13.590Z,1.50
2023-02-27T09:33:41.719Z,1.60
2023-02-27T09:36:10.200Z,1.60
2023-02-27T09:38:41.228Z,1.70
2023-02-27T09:41:24.765Z,1.80
2023-02-27T09:43:53.233Z,1.60
2023-02-27T09:46:25.785Z,1.90
2023-02-27T09:49:00.274Z,2.10
2023-02-27T09:51:29.925Z,1.60
2023-02-27T09:54:01.572Z,1.80
2023-02-27T09:56:35.710Z,1.60
2023-02-27T09:59:35.563Z,1.80
2023-02-27T10:02:29.976Z,1.90
2023-02-27T10:05:22.812Z,1.50
2023-02-27T10:08:10.080Z,1.60
2023-02-27T10:10:46.539Z,1.90
2023-02-27T10:13:42.235Z,1.90
2023-02-27T10:16:18.837Z,1.40
2023-02-27T10:18:52.591Z,1.30
2023-02-27T10:21:29.329Z,1.30
2023-02-27T10:24:13.867Z,1.20
2023-02-27T10:26:44.597Z,1.20
2023-02-27T10:29:20.845Z,1.40
2023-02-27T10:31:57.552Z,1.50
2023-02-27T10:34:28.778Z,1.70
2023-02-27T10:37:01.123Z,1.80
2023-02-27T10:39:30.718Z,2.20
2023-02-27T10:42:06.859Z,1.70
2023-02-27T10:44:34.915Z,1.60
2023-02-27T10:47:03.304Z,2.00
2023-02-27T10:49:33.150Z,2.00
2023-02-27T10:52:06.482Z,1.40
2023-02-27T10:54:34.751Z,1.70
2023-02-27T10:57:27.578Z,1.40
2023-02-27T10:59:59.240Z,1.60
2023-02-27T11:02:37.371Z,1.50
2023-02-27T11:05:07.910Z,1.10
2023-02-27T11:07:39.724Z,1.20
2023-02-27T11:10:10.873Z,1.70
2023-02-27T11:12:40.444Z,1.50
2023-02-27T11:15:17.214Z,1.20
2023-02-27T11:17:45.226Z,1.10
2023-02-27T11:20:33.528Z,1.20
2023-02-27T11:23:16.544Z,1.30
2023-02-27T11:25:45.036Z,1.30
2023-02-27T11:28:33.388Z,0.90
2023-02-27T11:31:17.313Z,1.20
2023-02-27T11:33:54.894Z,1.00
2023-02-27T11:36:23.910Z,1.50
2023-02-27T11:38:54.997Z,1.10
2023-02-27T11:41:35.739Z,1.00
2023-02-27T11:44:05.688Z,1.10
2023-02-27T11:46:46.795Z,0.90
2023-02-27T11:49:44.102Z,0.90
2023-02-27T11:52:32.888Z,1.00
2023-02-27T11:55:04.937Z,0.80
2023-02-27T11:57:38.209Z,1.10
2023-02-27T12:00:27.186Z,1.10
2023-02-27T12:03:33.569Z,1.10
2023-02-27T12:06:06.620Z,1.40
2023-02-27T12:08:55.411Z,1.40
2023-02-27T12:11:24.275Z,1.40
2023-02-27T12:14:04.774Z,1.20
2023-02-27T12:16:37.650Z,1.10
2023-02-27T12:19:15.935Z,1.00
2023-02-27T12:22:12.570Z,1.20
2023-02-27T12:24:56.119Z,1.30
2023-02-27T12:27:29.912Z,1.10
2023-02-27T12:30:07.809Z,1.40
2023-02-27T12:32:53.944Z,1.20
2023-02-27T12:35:30.438Z,1.20
2023-02-27T12:37:59.692Z,1.30
2023-02-27T12:40:37.054Z,1.30
2023-02-27T12:43:17.739Z,1.10
2023-02-27T12:45:48.557Z,1.50
2023-02-27T12:48:23.336Z,2.10
2023-02-27T12:51:29.433Z,2.80
2023-02-27T12:54:22.301Z,1.50
2023-02-27T12:57:08.440Z,1.70
2023-02-27T13:00:09.347Z,1.60
2023-02-27T13:02:40.384Z,2.00
2023-02-27T13:05:43.481Z,1.70
2023-02-27T13:08:39.552Z,1.50
2023-02-27T13:11:36.723Z,1.80
2023-02-27T13:14:31.450Z,1.60
2023-02-27T13:17:17.324Z,6.20
2023-02-27T13:19:53.214Z,3.40
2023-02-27T13:22:34.112Z,1.70
2023-02-27T13:25:11.977Z,1.40
2023-02-27T13:27:46.677Z,2.30
2023-02-27T13:30:24.407Z,2.40
2023-02-27T13:32:52.636Z,3.20
2023-02-27T13:35:29.588Z,2.90
2023-02-27T13:38:05.423Z,2.00
2023-02-27T13:40:39.418Z,2.90
2023-02-27T13:43:33.167Z,2.30
2023-02-27T13:46:26.011Z,2.00
2023-02-27T13:49:06.111Z,1.70
2023-02-27T13:51:41.465Z,2.00
2023-02-27T13:54:18.389Z,2.10
2023-02-27T13:56:50.647Z,2.20
2023-02-27T13:59:37.878Z,2.40
2023-02-27T14:02:12.067Z,2.20
2023-02-27T14:04:50.752Z,2.60
2023-02-27T14:07:24.377Z,3.70
2023-02-27T14:10:11.678Z,4.00
2023-02-27T14:12:45.784Z,4.10
2023-02-27T14:15:17.489Z,2.70
2023-02-27T14:17:49.644Z,3.00
2023-02-27T14:20:27.471Z,3.50
2023-02-27T14:23:16.961Z,2.50
2023-02-27T14:25:53.450Z,2.70
2023-02-27T14:28:48.638Z,1.50
2023-02-27T14:31:28.785Z,1.90
2023-02-27T14:34:01.020Z,2.00
2023-02-27T14:36:33.171Z,3.40
2023-02-27T14:39:03.220Z,4.00
2023-02-27T14:41:55.952Z,3.80
2023-02-27T14:44:27.384Z,3.80
2023-02-27T14:46:57.599Z,3.30
2023-02-27T14:49:29.927Z,3.00
2023-02-27T14:52:14.853Z,3.60
2023-02-27T14:54:45.097Z,3.20
2023-02-27T14:57:26.976Z,2.50
2023-02-27T14:59:55.421Z,2.50
2023-02-27T15:02:29.334Z,2.70
2023-02-27T15:05:03.643Z,4.30
2023-02-27T15:07:34.641Z,4.40
2023-02-27T15:10:06.151Z,5.30
2023-02-27T15:12:39.368Z,3.50
2023-02-27T15:15:10.324Z,3.90
2023-02-27T15:17:41.350Z,4.90
2023-02-27T15:20:31.119Z,4.60
2023-02-27T15:23:01.718Z,4.20
2023-02-27T15:25:34.958Z,2.60
2023-02-27T15:28:23.455Z,3.20
2023-02-27T15:30:53.976Z,2.80
2023-02-27T15:33:30.862Z,2.40
2023-02-27T15:36:00.105Z,2.30
2023-02-27T15:38:29.739Z,2.40
2023-02-27T15:40:59.833Z,2.10
2023-02-27T15:43:30.095Z,2.30
2023-02-27T15:45:58.773Z,2.10
2023-02-27T15:48:27.169Z,2.10
2023-02-27T15:51:00.572Z,2.60
2023-02-27T15:53:31.034Z,3.20
2023-02-27T15:56:02.322Z,3.60
2023-02-27T15:58:32.085Z,4.40
2023-02-27T16:01:08.403Z,4.90
2023-02-27T16:03:49.229Z,2.40
2023-02-27T16:06:35.593Z,1.80
2023-02-27T16:09:16.603Z,2.00
2023-02-27T16:11:44.700Z,2.10
2023-02-27T16:14:37.911Z,2.40
2023-02-27T16:17:24.106Z,3.10
2023-02-27T16:19:53.204Z,3.40
2023-02-27T16:22:22.004Z,4.00
2023-02-27T16:24:50.360Z,4.30
2023-02-27T16:27:29.433Z,4.40
2023-02-27T16:30:02.942Z,4.30
2023-02-27T16:32:44.329Z,5.20
2023-02-27T16:35:21.869Z,4.70
2023-02-27T16:37:50.876Z,5.60
2023-02-27T16:40:23.009Z,7.60
2023-02-27T16:42:52.664Z,7.30
2023-02-27T16:45:26.621Z,6.50
2023-02-27T16:48:00.254Z,3.80
2023-02-27T16:50:38.753Z,3.90
2023-02-27T16:53:08.101Z,4.70
2023-02-27T16:55:39.886Z,4.60
2023-02-27T16:58:13.620Z,5.60
2023-02-27T17:00:41.967Z,7.10
2023-02-27T17:03:10.220Z,7.30
2023-02-27T17:05:38.443Z,7.60
2023-02-27T17:08:06.554Z,8.00
2023-02-27T17:10:34.667Z,8.50
2023-02-27T17:13:02.584Z,9.70
2023-02-27T17:15:30.633Z,10.10
2023-02-27T17:17:58.695Z,10.60
2023-02-27T17:20:28.290Z,10.10
2023-02-27T17:22:56.798Z,10.10
2023-02-27T17:25:25.666Z,10.90
2023-02-27T17:27:53.860Z,11.00
2023-02-27T17:30:22.124Z,10.00
2023-02-27T17:32:50.198Z,9.40
2023-02-27T17:35:18.382Z,12.30
2023-02-27T17:37:46.737Z,13.80
2023-02-27T17:40:14.813Z,16.30
2023-02-27T17:42:42.977Z,14.80
2023-02-27T17:45:11.775Z,13.00
2023-02-27T17:47:39.856Z,12.80
2023-02-27T17:50:08.354Z,11.60
2023-02-27T17:52:37.437Z,13.20
2023-02-27T17:55:06.832Z,12.30
2023-02-27T17:57:36.619Z,10.90
2023-02-27T18:00:09.723Z,10.50
2023-02-27T18:02:37.767Z,9.60
2023-02-27T18:05:06.799Z,7.70
2023-02-27T18:07:34.945Z,9.40
2023-02-27T18:10:05.849Z,13.50
2023-02-27T18:12:34.520Z,9.70
2023-02-27T18:15:03.464Z,7.10
2023-02-27T18:17:32.056Z,7.40
2023-02-27T18:20:00.627Z,7.80
2023-02-27T18:22:30.227Z,10.50
2023-02-27T18:24:58.860Z,11.20
2023-02-27T18:27:28.175Z,9.70
2023-02-27T18:29:57.921Z,7.90
2023-02-27T18:32:26.099Z,6.80
2023-02-27T18:34:54.381Z,7.10
2023-02-27T18:37:22.457Z,8.60
2023-02-27T18:39:50.574Z,9.40
2023-02-27T18:42:18.588Z,8.70
2023-02-27T18:44:47.900Z,8.60
2023-02-27T18:47:16.050Z,11.70
2023-02-27T18:49:44.350Z,15.00
2023-02-27T18:52:12.400Z,15.20
2023-02-27T18:54:42.512Z,16.90
2023-02-27T18:57:11.095Z,18.10
2023-02-27T18:59:41.362Z,15.80
2023-02-27T19:02:21.585Z,14.80
2023-02-27T19:04:49.846Z,14.40
2023-02-27T19:07:19.746Z,10.90
2023-02-27T19:09:47.754Z,9.90
2023-02-27T19:12:15.815Z,10.10
2023-02-27T19:14:44.101Z,10.70
2023-02-27T19:17:12.149Z,15.40
2023-02-27T19:19:40.229Z,15.40
2023-02-27T19:22:08.409Z,11.30
2023-02-27T19:24:36.465Z,11.20
2023-02-27T19:27:04.697Z,10.20
2023-02-27T19:29:33.120Z,10.90
2023-02-27T19:32:02.379Z,11.00
2023-02-27T19:34:30.691Z,10.60
2023-02-27T19:36:58.752Z,11.30
2023-02-27T19:39:27.950Z,12.80
2023-02-27T19:41:56.691Z,11.50
2023-02-27T19:44:26.560Z,11.50
2023-02-27T19:46:54.627Z,10.20
2023-02-27T19:49:22.798Z,9.30
2023-02-27T19:51:50.796Z,8.10
2023-02-27T19:54:18.861Z,6.50
2023-02-27T19:56:47.112Z,6.60
2023-02-27T19:59:15.168Z,8.50
2023-02-27T20:01:43.260Z,7.80
2023-02-27T20:04:11.655Z,6.90
2023-02-27T20:06:42.743Z,7.30
2023-02-27T20:09:14.740Z,7.20
2023-02-27T20:11:44.447Z,6.70
2023-02-27T20:14:14.051Z,6.70
2023-02-27T20:16:42.986Z,6.50
2023-02-27T20:19:15.207Z,6.70
2023-02-27T20:21:43.747Z,6.30
2023-02-27T20:24:12.770Z,6.30
2023-02-27T20:26:44.130Z,6.80
2023-02-27T20:29:15.849Z,6.70
2023-02-27T20:31:46.494Z,7.10
2023-02-27T20:34:16.875Z,6.80
2023-02-27T20:36:45.012Z,7.30
2023-02-27T20:39:13.090Z,7.40
2023-02-27T20:41:41.157Z,8.40
2023-02-27T20:44:09.537Z,7.40
2023-02-27T20:46:42.681Z,8.30
2023-02-27T20:49:12.645Z,8.30
2023-02-27T20:51:40.766Z,9.80
2023-02-27T20:54:13.643Z,12.50
2023-02-27T20:56:43.159Z,51.40
2023-02-27T20:59:16.475Z,88.30
2023-02-27T21:01:51.899Z,31.00
2023-02-27T21:04:47.438Z,31.70
2023-02-27T21:07:21.542Z,29.20
2023-02-27T21:09:50.977Z,19.80
2023-02-27T21:12:19.037Z,18.30
2023-02-27T21:14:48.845Z,22.50
2023-02-27T21:17:17.118Z,33.30
2023-02-27T21:19:45.187Z,37.80
2023-02-27T21:22:14.421Z,36.30
2023-02-27T21:24:42.413Z,20.40
2023-02-27T21:27:10.425Z,23.90
2023-02-27T21:29:38.883Z,19.30
2023-02-27T21:32:07.832Z,27.70
2023-02-27T21:34:36.080Z,38.80
2023-02-27T21:37:06.487Z,34.20
2023-02-27T21:39:34.715Z,16.50
2023-02-27T21:42:02.832Z,15.20
2023-02-27T21:44:32.050Z,15.40
2023-02-27T21:47:00.033Z,12.90
2023-02-27T21:49:29.539Z,12.00
2023-02-27T21:51:57.622Z,11.70
2023-02-27T21:54:25.597Z,13.70
2023-02-27T21:56:53.611Z,13.50
2023-02-27T21:59:21.837Z,12.60
2023-02-27T22:01:51.216Z,11.00
2023-02-27T22:04:20.479Z,11.00
2023-02-27T22:06:50.495Z,10.40
2023-02-27T22:09:19.496Z,9.60
2023-02-27T22:11:48.971Z,9.50
2023-02-27T22:14:17.473Z,9.30
2023-02-27T22:16:45.470Z,9.40
2023-02-27T22:19:19.965Z,8.90
2023-02-27T22:21:48.489Z,9.50
2023-02-27T22:24:16.620Z,9.60
2023-02-27T22:26:45.920Z,9.10
2023-02-27T22:29:14.409Z,9.30
2023-02-27T22:31:43.341Z,9.10
2023-02-27T22:34:15.406Z,9.60
2023-02-27T22:36:43.915Z,8.90
2023-02-27T22:39:13.015Z,8.60
2023-02-27T22:41:42.169Z,9.00
2023-02-27T22:44:13.199Z,9.60
2023-02-27T22:46:47.225Z,10.50
2023-02-27T22:49:21.607Z,12.00
2023-02-27T22:51:51.719Z,10.70
2023-02-27T22:54:22.170Z,12.60
2023-02-27T22:56:53.977Z,13.80
2023-02-27T22:59:23.399Z,14.10
2023-02-27T23:01:52.114Z,14.90
2023-02-27T23:04:22.452Z,14.00
2023-02-27T23:06:52.697Z,14.90
2023-02-27T23:09:24.239Z,18.30
2023-02-27T23:11:52.822Z,19.70
2023-02-27T23:14:21.512Z,19.20
2023-02-27T23:16:49.694Z,21.50
2023-02-27T23:19:20.345Z,22.70
2023-02-27T23:21:48.641Z,23.50
2023-02-27T23:24:18.766Z,22.90
2023-02-27T23:26:51.723Z,21.30
2023-02-27T23:29:20.475Z,23.40
2023-02-27T23:31:48.914Z,22.00
2023-02-27T23:34:17.078Z,20.50
2023-02-27T23:36:45.236Z,17.20
2023-02-27T23:39:13.409Z,16.60
2023-02-27T23:41:41.684Z,13.10
2023-02-27T23:44:09.761Z,13.70
2023-02-27T23:46:38.212Z,13.90
2023-02-27T23:49:06.581Z,15.40
2023-02-27T23:51:35.113Z,16.00
2023-02-27T23:54:03.659Z,16.90
2023-02-27T23:56:31.687Z,18.30
2023-02-27T23:59:03.178Z,13.50
